Tiempo atmosférico en la estación meteorológica de Becerreá, Lugo (1080 m.)



Fecha
DESCASC
Temp. máxima en grados centígrados (hora)
DESCASC
Temp. mínima en grados centígrados (hora)
DESCASC
Temp. media en grados centígrados
DESCASC
Racha de viento máxima en m/sg (hora)
DESCASC
Velocidad máxima media en intervalos de 10 minutos(hora)
DESCASC
Precipitaciones diarias en mm
DESCASC
Precipitaciones de 00:00 a 06:00 en mm
DESCASC
Precipitaciones de 06:00 a 12:00 en mm
DESCASC
Precipitaciones de 12:00 a 18:00 en mm
DESCASC
Precipitaciones de 18:00 a 24:00 en mm
DESCASC
20-09-2018 22.8 (17:00) 12 (08:20) 17.4 8.06 (15:20) 4.72 (14:00) 0 0 0 0 0
19-09-2018 20.5 (17:10) 10 (08:30) 15.3 5.83 (16:10) 4.17 (03:20) 0 0 0 0 0
18-09-2018 21.8 (17:20) 12.3 (06:30) 17 6.39 (17:30) 4.44 (23:20) 0 0 0 0 0
17-09-2018 25.2 (16:00) 15.1 (23:00) 20.2 10 (17:30) 4.72 (09:10) 0 0 0 0 0
16-09-2018 22.1 (18:50) 14.8 (00:00) 18.5 4.44 (14:30) 2.5 (03:50) 0 0 0 0 0
15-09-2018 24.3 (13:30) 13.4 (00:00) 18.8 7.78 (06:50) 5.28 (06:30) 0 0 0 0 0
14-09-2018 23.8 (17:30) 12.5 (00:00) 18.1 5 (03:50) 2.78 (18:30) 0 0 0 0 0
13-09-2018 23.5 (17:40) 12.8 (00:00) 18.2 5 (18:10) 2.78 (19:00) 0 0 0 0 0
12-09-2018 24.3 (17:30) 15.1 (00:00) 19.7 6.11 (14:50) 3.33 (19:20) 0 0 0 0 0
11-09-2018 25.9 (17:00) 16 (00:00) 20.9 7.78 (05:00) 4.44 (05:20) 0 0 0 0 0
10-09-2018 23.1 (16:10) 12.9 (00:00) 18 5.56 (06:50) 3.89 (06:40) 0 0 0 0 0
09-09-2018 20.9 (15:20) 12.2 (00:00) 16.5 9.17 (01:50) 5.83 (01:50) 0.8 0.8 0 0 0
08-09-2018 22.8 (16:10) 12.7 (00:00) 17.7 8.89 (23:50) 5 (05:40) 1 0 0 0.4 0.6
07-09-2018 20.6 (16:50) 10.1 (00:00) 15.4 5.83 (18:10) 2.22 (18:00) 0 0 0 0 0
06-09-2018 16.4 (15:40) 10.7 (00:00) 13.5 7.78 (19:50) 2.5 (13:40) 0 0 0 0 0
05-09-2018 17 (16:40) 11 (00:00) 14 7.78 (08:30) 2.78 (10:40) 8.8 8.8 0 0 0
04-09-2018 19.5 (16:30) 10.7 (00:00) 15.1 6.67 (23:10) 2.22 (22:40) 1.2 0.2 1 0 0
03-09-2018 19.4 (14:50) 13.7 (00:00) 16.5 7.78 (22:10) 2.22 (21:10) 2.6 0 0 0 2.6
02-09-2018 28.7 (16:20) 19 (00:00) 23.9 8.61 (04:50) 4.17 (04:40) 0 0 0 0 0
01-09-2018 27.8 (18:10) 14.6 (00:00) 21.2 8.61 (04:40) 4.72 (07:50) 0 0 0 0 0
31-08-2018 23.8 (17:30) 11 (00:00) 17.4 5.83 (19:10) 2.22 (18:40) 0 0 0 0 0
30-08-2018 21.1 (17:50) 10.6 (00:00) 15.9 4.72 (07:20) 2.22 (07:20) 0 0 0 0 0
29-08-2018 19.1 (17:20) 11.4 (00:00) 15.3 6.39 (04:10) 4.17 (03:40) 0.6 0.6 0 0 0
28-08-2018 23.5 (01:00) 14.4 (00:00) 18.9 11.39 (05:10) 5.83 (05:10) 8 1.2 0.4 6 0.4
27-08-2018 26.3 (17:00) 14.2 (00:00) 20.2 5.83 (10:30) 2.78 (22:50) 0 0 0 0 0
26-08-2018 23.1 (18:00) 9.8 (00:00) 16.5 5.28 (17:30) 2.78 (20:40) 0 0 0 0 0
25-08-2018 18.1 (17:20) 9.1 (00:00) 13.6 5.56 (04:20) 2.22 (21:10) 0 0 0 0 0
24-08-2018 20.2 (16:00) 11.7 (00:00) 16 5.28 (23:00) 2.22 (17:20) 0 0 0 0 0
23-08-2018 24.1 (16:20) 14.7 (00:00) 19.4 5.28 (19:30) 2.78 (19:30) 0 0 0 0 0

Gráficas

Temp. máximas Temp. mínimas Temp. medias Precipitaciones Rachas de viento máximas Velocidades máximas media en intervalos de 10 minutos

Datos horarios

Fecha y hora oficial Temperatura (ºC) Velocidad del viento (km/h) Dirección del viento Racha (km/h) Dirección de racha Precipitación (mm) Presión (hPa) Tendencia (hPa) Humedad (%)
2018-09-21 23:00:00 14.4 0 Calma 5 Este 0 -- -- 93
2018-09-21 22:00:00 14.8 0 Calma 10 Noroeste 0 -- -- 93
2018-09-21 21:00:00 15.4 6 Oeste 8 Oeste 0 -- -- 91
2018-09-21 20:00:00 16.7 6 Oeste 10 Oeste 0 -- -- 87
2018-09-21 19:00:00 18 3 Noroeste 8 Sudoeste 0 -- -- 80
2018-09-21 18:00:00 17.5 5 Sudoeste 14 Oeste 0 -- -- 80
2018-09-21 17:00:00 17.8 4 Oeste 14 Oeste 0 -- -- 80
2018-09-21 16:00:00 17.3 4 Oeste 14 Noroeste 0 -- -- 82
2018-09-21 15:00:00 17.5 6 Oeste 15 Oeste 0 -- -- 81
2018-09-21 14:00:00 16.8 7 Sudoeste 14 Sur 0 -- -- 83
2018-09-21 13:00:00 15.7 6 Sudoeste 14 Sudoeste 0 -- -- 85
2018-09-21 12:00:00 14.6 7 Sudoeste 14 Sudoeste 0 -- -- 86
2018-09-21 11:00:00 13.9 5 Oeste 15 Oeste 0 -- -- 90
2018-09-21 10:00:00 12.3 3 Oeste 18 Oeste 0 -- -- 97
2018-09-21 09:00:00 11.8 6 Sudoeste 25 Sudoeste 0 -- -- 98
2018-09-21 08:00:00 11.4 7 Sudoeste 20 Sudoeste 0 -- -- 98
2018-09-21 07:00:00 11.5 9 Sudoeste 21 Sudoeste 0 -- -- 99
2018-09-21 06:00:00 11.9 11 Oeste 29 Sudoeste 0 -- -- 99
2018-09-21 05:00:00 12 11 Sudoeste 23 Sudoeste 0 -- -- 98
2018-09-21 04:00:00 11.9 7 Sudoeste 26 Sudoeste 0 -- -- 96
2018-09-21 03:00:00 12.4 6 Oeste 19 Sudoeste 0 -- -- 95
2018-09-21 02:00:00 12.1 10 Sudoeste 21 Sur 0 -- -- 89
2018-09-21 01:00:00 12.2 7 Sudoeste 24 Sudoeste 0 -- -- 91
2018-09-21 00:00:00 12.2 13 Oeste 26 Oeste 0 -- -- 95
2018-09-20 23:00:00 14.1 14 Sudoeste 23 Sudoeste 0 -- -- 75
2018-09-20 22:00:00 14 9 Sudoeste 21 Oeste 0 -- -- 85
2018-09-20 21:00:00 14.9 12 Oeste 27 Oeste 0 -- -- 84
2018-09-20 20:00:00 17.3 15 Oeste 28 Noroeste 0 -- -- 73
2018-09-20 19:00:00 20.9 8 Oeste 21 Oeste 0 -- -- 62
2018-09-20 18:00:00 21.9 7 Oeste 26 Oeste 0 -- -- 49
2018-09-20 17:00:00 22.8 8 Oeste 24 Sudoeste 0 -- -- 40
2018-09-20 16:00:00 22.3 12 Sudoeste 29 Sudoeste 0 -- -- 43
2018-09-20 15:00:00 21.3 12 Oeste 27 Oeste 0 -- -- 50
2018-09-20 14:00:00 19.2 17 Oeste 27 Oeste 0 -- -- 67
2018-09-20 13:00:00 20.1 8 Sudoeste 14 Sur 0 -- -- 66
2018-09-20 12:00:00 19.6 7 Sudoeste 17 Sur 0 -- -- 56
2018-09-20 11:00:00 17.1 6 Sur 14 Sudoeste 0 -- -- 62
2018-09-20 10:00:00 14.9 4 Sudoeste 9 Sur 0 -- -- 80
2018-09-20 09:00:00 13.4 4 Sur 9 Sudoeste 0 -- -- 66
2018-09-20 08:00:00 12.2 2 Sudeste 4 Sudeste 0 -- -- 72
2018-09-20 07:00:00 12.7 3 Sudoeste 9 Oeste 0 -- -- 86
2018-09-20 06:00:00 13.2 2 Sur 7 Oeste 0 -- -- 74
2018-09-20 05:00:00 14.7 5 Sur 10 Sur 0 -- -- 72
2018-09-20 04:00:00 14.4 8 Sur 12 Sur 0 -- -- 75
2018-09-20 03:00:00 13.1 4 Sudeste 6 Sur 0 -- -- 91
2018-09-20 02:00:00 13.2 0 Calma 6 Oeste 0 -- -- 90
2018-09-20 01:00:00 13.5 2 Oeste 7 Oeste 0 -- -- 90
2018-09-20 00:00:00 13.8 6 Oeste 12 Sudoeste 0 -- -- 87
2018-09-19 23:00:00 14.7 9 Oeste 15 Oeste 0 -- -- 79
2018-09-19 22:00:00 15.6 9 Oeste 14 Oeste 0 -- -- 71
2018-09-19 21:00:00 16.1 6 Oeste 10 Noroeste 0 -- -- 68
2018-09-19 20:00:00 18.1 6 Oeste 17 Oeste 0 -- -- 64
2018-09-19 19:00:00 20.3 8 Oeste 21 Oeste 0 -- -- 56
2018-09-19 18:00:00 20.5 9 Oeste 21 Oeste 0 -- -- 57
2018-09-19 17:00:00 20.4 10 Oeste 21 Sudoeste 0 -- -- 58
2018-09-19 16:00:00 19.6 9 Oeste 20 Sudoeste 0 -- -- 62
2018-09-19 15:00:00 18.4 11 Oeste 19 Oeste 0 -- -- 68
2018-09-19 14:00:00 17.8 6 Oeste 14 Sudoeste 0 -- -- 71
2018-09-19 13:00:00 15.6 10 Sudoeste 20 Oeste 0 -- -- 72
2018-09-19 12:00:00 14.7 8 Sudoeste 14 Sur 0 -- -- 79
2018-09-19 11:00:00 13.2 5 Sudoeste 15 Sudoeste 0 -- -- 92
2018-09-19 10:00:00 12.8 8 Sudoeste 15 Sudoeste 0 -- -- 88
2018-09-19 09:00:00 11.3 5 Sudoeste 15 Sudoeste 0 -- -- 81
2018-09-19 08:00:00 11.3 6 Sudoeste 21 Sudeste 0 -- -- 90
2018-09-19 07:00:00 11.3 9 Sudeste 18 Sudeste 0 -- -- 100
2018-09-19 06:00:00 11.9 9 Oeste 18 Sudoeste 0 -- -- 99
2018-09-19 05:00:00 12.4 8 Sudoeste 14 Sudoeste 0 -- -- 99
2018-09-19 04:00:00 12 11 Sudoeste 20 Oeste 0 -- -- 99
2018-09-19 03:00:00 14 6 Sudoeste 14 Sudeste 0 -- -- 71
2018-09-19 02:00:00 13.5 9 Sudeste 16 Sudeste 0 -- -- 99
2018-09-19 01:00:00 12.3 2 Sudeste 9 Oeste 0 -- -- 98
2018-09-19 00:00:00 12.9 10 Oeste 21 Sudoeste 0 -- -- 98
2018-09-18 23:00:00 13.4 15 Oeste 21 Oeste 0 -- -- 94
2018-09-18 22:00:00 14.7 13 Oeste 18 Sudoeste 0 -- -- 91
2018-09-18 21:00:00 15.9 6 Sudoeste 15 Oeste 0 -- -- 87
2018-09-18 20:00:00 17.9 7 Oeste 19 Noroeste 0 -- -- 80
2018-09-18 19:00:00 19.4 6 Oeste 17 Sudoeste 0 -- -- 73
2018-09-18 18:00:00 20.9 8 Sudoeste 23 Sudoeste 0 -- -- 58
2018-09-18 17:00:00 21.7 6 Oeste 20 Sudoeste 0 -- -- 59
2018-09-18 16:00:00 20.9 9 Oeste 22 Sudoeste 0 -- -- 59
2018-09-18 15:00:00 20.3 9 Oeste 20 Oeste 0 -- -- 62
2018-09-18 14:00:00 19.1 10 Oeste 22 Sudoeste 0 -- -- 70
2018-09-18 13:00:00 17.7 10 Sudoeste 18 Sudoeste 0 -- -- 75
2018-09-18 12:00:00 16.4 6 Sudoeste 18 Sudoeste 0 -- -- 78
2018-09-18 11:00:00 15.4 5 Oeste 13 Sur 0 -- -- 82
2018-09-18 10:00:00 14.7 4 Sur 11 Sudeste 0 -- -- 85
2018-09-18 09:00:00 13.4 3 Sudeste 14 Sudoeste 0 -- -- 89
2018-09-18 08:00:00 12.3 11 Sudoeste 19 Oeste 0 -- -- 79
2018-09-18 07:00:00 12.5 5 Sudoeste 10 Sudoeste 0 -- -- 74
2018-09-18 06:00:00 13 3 Sur 10 Sur 0 -- -- 70
2018-09-18 05:00:00 13.4 10 Sudoeste 19 Sudoeste 0 -- -- 74
2018-09-18 04:00:00 14 10 Sudoeste 17 Sudoeste 0 -- -- 72
2018-09-18 03:00:00 14.4 7 Sudoeste 12 Sudoeste 0 -- -- 66
2018-09-18 02:00:00 14.7 3 Sur 14 Sur 0 -- -- 70
2018-09-18 01:00:00 14.4 5 Sur 14 Oeste 0 -- -- 70
2018-09-18 00:00:00 16.1 6 Sur 13 Sur 0 -- -- 64
2018-09-17 23:00:00 15.1 6 Oeste 14 Oeste 0 -- -- 72
2018-09-17 22:00:00 16.1 5 Sudoeste 23 Oeste 0 -- -- 67
2018-09-17 21:00:00 17.1 13 Oeste 21 Oeste 0 -- -- 64
2018-09-17 20:00:00 19.9 10 Oeste 23 Oeste 0 -- -- 53
2018-09-17 19:00:00 22.6 11 Oeste 30 Oeste 0 -- -- 43
2018-09-17 18:00:00 24.5 9 Sudoeste 36 Sudoeste 0 -- -- 44
2018-09-17 17:00:00 24.8 13 Sudoeste 30 Sudoeste 0 -- -- 40
2018-09-17 16:00:00 25.2 10 Sudoeste 31 Oeste 0 -- -- 42
2018-09-17 15:00:00 24.8 9 Sur 28 Sur 0 -- -- 43
2018-09-17 14:00:00 24.4 14 Sur 32 Sur 0 -- -- 39
2018-09-17 13:00:00 24 12 Sudoeste 32 Sudoeste 0 -- -- 41
2018-09-17 12:00:00 22.9 8 Sur 27 Sur 0 -- -- 45
2018-09-17 11:00:00 20.9 14 Sur 27 Sudeste 0 -- -- 48
2018-09-17 10:00:00 20 15 Sur 32 Sur 0 -- -- 47
2018-09-17 09:00:00 19.5 16 Sur 34 Sudoeste 0 -- -- 45
2018-09-17 08:00:00 19.3 16 Sur 32 Sur 0 -- -- 46
2018-09-17 07:00:00 19.3 16 Sur 29 Sur 0 -- -- 45
2018-09-17 06:00:00 19.4 15 Sur 28 Sur 0 -- -- 44
2018-09-17 05:00:00 19.4 15 Sur 27 Sur 0 -- -- 45
2018-09-17 04:00:00 18.8 13 Sur 22 Sur 0 -- -- 46
2018-09-17 03:00:00 18.2 10 Sur 17 Sur 0 -- -- 55
2018-09-17 02:00:00 17.8 8 Sur 12 Sur 0 -- -- 53
2018-09-17 01:00:00 17.7 8 Sur 13 Sudeste 0 -- -- 58
2018-09-17 00:00:00 17.5 6 Sur 12 Sur 0 -- -- 75
2018-09-16 23:00:00 16.2 4 Sudeste 9 Sudeste 0 -- -- 94
2018-09-16 22:00:00 16.7 0 Calma 4 Sur 0 -- -- 91
2018-09-16 21:00:00 17.5 0 Calma 5 Sudoeste 0 -- -- 87
2018-09-16 20:00:00 19.6 0 Calma 7 Noroeste 0 -- -- 79
2018-09-16 19:00:00 21.8 4 Oeste 12 Oeste 0 -- -- 70
2018-09-16 18:00:00 21 5 Oeste 11 Oeste 0 -- -- 75
2018-09-16 17:00:00 20.8 2 Este 10 Noroeste 0 -- -- 81
2018-09-16 16:00:00 20 4 Oeste 12 Noroeste 0 -- -- 84
2018-09-16 15:00:00 19.5 5 Oeste 16 Oeste 0 -- -- 86
2018-09-16 14:00:00 19.8 2 Este 10 Oeste 0 -- -- 83
2018-09-16 13:00:00 18.9 2 Norte 14 Sudoeste 0 -- -- 86
2018-09-16 12:00:00 18.2 9 Oeste 15 Noroeste 0 -- -- 87
2018-09-16 11:00:00 18.4 3 Sudoeste 9 Noroeste 0 -- -- 80
2018-09-16 10:00:00 17.5 3 Sur 10 Sur 0 -- -- 82
2018-09-16 09:00:00 15.9 6 Sur 11 Sur 0 -- -- 93
2018-09-16 08:00:00 15.4 4 Sur 7 Sudeste 0 -- -- 96
2018-09-16 07:00:00 15.2 3 Sudoeste 7 Sudeste 0 -- -- 94
2018-09-16 06:00:00 15.2 0 Calma 10 Oeste 0 -- -- 95
2018-09-16 05:00:00 15.7 7 Oeste 10 Oeste 0 -- -- 94
2018-09-16 04:00:00 16.4 8 Oeste 12 Oeste 0 -- -- 90
2018-09-16 03:00:00 17.8 5 Sudoeste 10 Sudoeste 0 -- -- 77
2018-09-16 02:00:00 17.1 4 Sudeste 6 Sudeste 0 -- -- 83
2018-09-16 01:00:00 16.9 2 Noroeste 6 Oeste 0 -- -- 86
2018-09-16 00:00:00 17.4 5 Oeste 7 Noroeste 0 -- -- 83
2018-09-15 23:00:00 18 4 Oeste 7 Oeste 0 -- -- 80
2018-09-15 22:00:00 18.6 0 Calma 11 Noroeste 0 -- -- 78
2018-09-15 21:00:00 19.6 6 Oeste 15 Noroeste 0 -- -- 74
2018-09-15 20:00:00 21.3 10 Oeste 18 Noroeste 0 -- -- 71
2018-09-15 19:00:00 23.3 9 Oeste 21 Oeste 0 -- -- 60
2018-09-15 18:00:00 23.9 10 Oeste 20 Oeste 0 -- -- 61
2018-09-15 17:00:00 23.5 12 Oeste 26 Oeste 0 -- -- 63
2018-09-15 16:00:00 23 13 Oeste 26 Sudoeste 0 -- -- 60
2018-09-15 15:00:00 22.7 8 Oeste 20 Oeste 0 -- -- 71
2018-09-15 14:00:00 23.9 2 Norte 12 Sur 0 -- -- 69
2018-09-15 13:00:00 23.7 5 Sur 14 Sudeste 0 -- -- 64
2018-09-15 12:00:00 21.5 6 Sudeste 19 Este 0 -- -- 67
2018-09-15 11:00:00 19.4 9 Sudeste 23 Sudeste 0 -- -- 70
2018-09-15 10:00:00 17.8 12 Sudeste 23 Sudeste 0 -- -- 76
2018-09-15 09:00:00 17 13 Sudeste 24 Sudeste 0 -- -- 76
2018-09-15 08:00:00 16.6 17 Sudeste 28 Sudeste 0 -- -- 78
2018-09-15 07:00:00 16.5 14 Sudeste 28 Sur 0 -- -- 79
2018-09-15 06:00:00 16 15 Sudeste 27 Sudeste 0 -- -- 83
2018-09-15 05:00:00 15.2 15 Sudeste 27 Sudeste 0 -- -- 89
2018-09-15 04:00:00 13.4 12 Sudeste 23 Sudeste 0 -- -- 100
2018-09-15 03:00:00 13.4 5 Este 13 Este 0 -- -- 100
2018-09-15 02:00:00 13.7 4 Este 10 Nordeste 0 -- -- 100
2018-09-15 01:00:00 14 2 Este 11 Sudeste 0 -- -- 99
2018-09-15 00:00:00 14.2 3 Este 12 Este 0 -- -- 99
2018-09-14 23:00:00 14.5 2 Nordeste 12 Nordeste 0 -- -- 99
2018-09-14 22:00:00 14.8 4 Nordeste 14 Este 0 -- -- 98
2018-09-14 21:00:00 15.3 4 Nordeste 12 Nordeste 0 -- -- 96
2018-09-14 20:00:00 16.3 8 Norte 13 Nordeste 0 -- -- 92
2018-09-14 19:00:00 19.6 7 Noroeste 17 Noroeste 0 -- -- 80
2018-09-14 18:00:00 22.9 6 Noroeste 14 Oeste 0 -- -- 70
2018-09-14 17:00:00 23.6 8 Oeste 15 Noroeste 0 -- -- 62
2018-09-14 16:00:00 23 4 Noroeste 12 Noroeste 0 -- -- 64
2018-09-14 15:00:00 21.5 4 Norte 12 Nordeste 0 -- -- 68
2018-09-14 14:00:00 19.9 4 Norte 9 Norte 0 -- -- 77
2018-09-14 13:00:00 18.9 2 Nordeste 7 Norte 0 -- -- 82
2018-09-14 12:00:00 16.1 2 Nordeste 7 Norte 0 -- -- 99
2018-09-14 11:00:00 14.7 2 Sudeste 13 Este 0 -- -- 100
2018-09-14 10:00:00 13.7 5 Sudeste 12 Sudeste 0 -- -- 100
2018-09-14 09:00:00 12.5 4 Este 12 Este 0 -- -- 100
2018-09-14 08:00:00 12.6 2 Nordeste 8 Nordeste 0 -- -- 100
2018-09-14 07:00:00 12.8 2 Nordeste 11 Norte 0 -- -- 100
2018-09-14 06:00:00 13.2 0 Calma 13 Sudeste 0 -- -- 100
2018-09-14 05:00:00 13.4 3 Nordeste 11 Este 0 -- -- 100
2018-09-14 04:00:00 13.6 2 Nordeste 18 Este 0 -- -- 100
2018-09-14 03:00:00 13.8 2 Este 10 Sudeste 0 -- -- 100
2018-09-14 02:00:00 14 3 Nordeste 10 Nordeste 0 -- -- 100
2018-09-14 01:00:00 14.1 3 Nordeste 8 Sudeste 0 -- -- 99
2018-09-14 00:00:00 14.4 2 Nordeste 10 Nordeste 0 -- -- 98
2018-09-13 23:00:00 14.8 0 Calma 5 Nordeste 0 -- -- 96
2018-09-13 22:00:00 15.6 0 Calma 6 Nordeste 0 -- -- 92
2018-09-13 21:00:00 16.9 2 Nordeste 10 Noroeste 0 -- -- 87
2018-09-13 20:00:00 18.5 7 Noroeste 16 Oeste 0 -- -- 83
2018-09-13 19:00:00 20.9 10 Noroeste 18 Sudoeste 0 -- -- 72
2018-09-13 18:00:00 23.2 8 Oeste 17 Oeste 0 -- -- 60
2018-09-13 17:00:00 23.4 7 Noroeste 15 Oeste 0 -- -- 52
2018-09-13 16:00:00 22.2 5 Noroeste 13 Noroeste 0 -- -- 58
2018-09-13 15:00:00 21.5 5 Oeste 13 Oeste 0 -- -- 66
2018-09-13 14:00:00 19.8 3 Nordeste 8 Norte 0 -- -- 75
2018-09-13 13:00:00 18 2 Este 6 Este 0 -- -- 82
2018-09-13 12:00:00 14.8 3 Nordeste 11 Este 0 -- -- 100
2018-09-13 11:00:00 13.2 2 Este 11 Este 0 -- -- 100
2018-09-13 10:00:00 12.8 2 Este 10 Este 0 -- -- 100
2018-09-13 09:00:00 12.8 0 Calma 7 Este 0 -- -- 100
2018-09-13 08:00:00 13 3 Este 11 Este 0 -- -- 100
2018-09-13 07:00:00 13.3 2 Nordeste 9 Nordeste 0 -- -- 100
2018-09-13 06:00:00 13.5 0 Calma 12 Sudeste 0 -- -- 99
2018-09-13 05:00:00 13.7 2 Este 10 Este 0 -- -- 99
2018-09-13 04:00:00 14 3 Este 9 Sudeste 0 -- -- 97
2018-09-13 03:00:00 15 6 Sur 13 Sur 0 -- -- 85
2018-09-13 02:00:00 14.5 5 Sudeste 10 Sudeste 0 -- -- 96
2018-09-13 01:00:00 14.8 4 Este 10 Sudeste 0 -- -- 97
2018-09-13 00:00:00 15.1 0 Calma 6 Este 0 -- -- 94
2018-09-12 23:00:00 16 0 Calma 5 Este 0 -- -- 89
2018-09-12 22:00:00 17 0 Calma 5 Este 0 -- -- 83
2018-09-12 21:00:00 18 3 Noroeste 18 Noroeste 0 -- -- 81
2018-09-12 20:00:00 19.5 11 Noroeste 21 Noroeste 0 -- -- 72
2018-09-12 19:00:00 22.4 9 Noroeste 21 Oeste 0 -- -- 70
2018-09-12 18:00:00 24.1 9 Oeste 21 Noroeste 0 -- -- 58
2018-09-12 17:00:00 24.1 10 Oeste 19 Oeste 0 -- -- 55
2018-09-12 16:00:00 24 8 Oeste 21 Noroeste 0 -- -- 57
2018-09-12 15:00:00 23.1 9 Oeste 22 Oeste 0 -- -- 60
2018-09-12 14:00:00 22.3 10 Oeste 20 Oeste 0 -- -- 59
2018-09-12 13:00:00 22.8 6 Oeste 13 Oeste 0 -- -- 55
2018-09-12 12:00:00 21.6 4 Noroeste 8 Noroeste 0 -- -- 64
2018-09-12 11:00:00 19.9 2 Este 5 Sudeste 0 -- -- 70
2018-09-12 10:00:00 19.1 0 Calma 5 Sudoeste 0 -- -- 67
2018-09-12 09:00:00 18.5 3 Oeste 11 Sur 0 -- -- 66
2018-09-12 08:00:00 18.3 7 Sur 13 Sudoeste 0 -- -- 62
2018-09-12 07:00:00 18.5 7 Sur 10 Sur 0 -- -- 62
2018-09-12 06:00:00 18.4 6 Sur 10 Sur 0 -- -- 66
2018-09-12 05:00:00 19 8 Sur 14 Sudeste 0 -- -- 66
2018-09-12 04:00:00 17.9 8 Sudeste 14 Sudeste 0 -- -- 74
2018-09-12 03:00:00 17.7 2 Sudeste 4 Sur 0 -- -- 73
2018-09-12 02:00:00 17.7 0 Calma 5 Sudoeste 0 -- -- 75
2018-09-12 01:00:00 17.7 2 Este 6 Este 0 -- -- 79
2018-09-12 00:00:00 18 0 Calma 5 Este 0 -- -- 78
2018-09-11 23:00:00 18.7 2 Nordeste 11 Nordeste 0 -- -- 75
2018-09-11 22:00:00 19.4 2 Nordeste 10 Este 0 -- -- 74
2018-09-11 21:00:00 20.5 4 Nordeste 14 Noroeste 0 -- -- 71
2018-09-11 20:00:00 23.2 6 Oeste 14 Oeste 0 -- -- 53
2018-09-11 19:00:00 25.2 7 Oeste 15 Oeste 0 -- -- 48
2018-09-11 18:00:00 25.9 5 Noroeste 12 Noroeste 0 -- -- 44
2018-09-11 17:00:00 25.9 2 Sudeste 8 Nordeste 0 -- -- 42
2018-09-11 16:00:00 24.7 4 Nordeste 9 Nordeste 0 -- -- 45
2018-09-11 15:00:00 24.3 4 Nordeste 10 Este 0 -- -- 41
2018-09-11 14:00:00 23.7 3 Este 11 Nordeste 0 -- -- 48
2018-09-11 13:00:00 23.6 2 Este 10 Este 0 -- -- 58
2018-09-11 12:00:00 22.1 3 Este 13 Sur 0 -- -- 63
2018-09-11 11:00:00 20.2 8 Sur 17 Sur 0 -- -- 60
2018-09-11 10:00:00 19 10 Sudeste 18 Sudeste 0 -- -- 63
2018-09-11 09:00:00 18.2 12 Sudeste 19 Sudeste 0 -- -- 61
2018-09-11 08:00:00 17.9 12 Sur 18 Sudeste 0 -- -- 60
2018-09-11 07:00:00 17.8 13 Sur 24 Sudeste 0 -- -- 61
2018-09-11 06:00:00 17.6 13 Sudeste 27 Sudeste 0 -- -- 62
2018-09-11 05:00:00 17.4 14 Sudeste 28 Sudeste 0 -- -- 64
2018-09-11 04:00:00 18 10 Sudeste 22 Sudeste 0 -- -- 65
2018-09-11 03:00:00 17.8 13 Sudeste 20 Sudeste 0 -- -- 68
2018-09-11 02:00:00 17.2 5 Sudeste 11 Sudeste 0 -- -- 81
2018-09-11 01:00:00 16.2 3 Sudeste 11 Sudeste 0 -- -- 85
2018-09-11 00:00:00 16 4 Sudeste 9 Este 0 -- -- 87
2018-09-10 23:00:00 16.7 0 Calma 10 Nordeste 0 -- -- 84
2018-09-10 22:00:00 17.6 0 Calma 13 Nordeste 0 -- -- 79
2018-09-10 21:00:00 18.7 6 Norte 15 Noroeste 0 -- -- 79
2018-09-10 20:00:00 20.6 9 Noroeste 15 Oeste 0 -- -- 65
2018-09-10 19:00:00 23 5 Noroeste 10 Noroeste 0 -- -- 54
2018-09-10 18:00:00 22.9 5 Noroeste 13 Noroeste 0 -- -- 56
2018-09-10 17:00:00 22.7 5 Norte 17 Noroeste 0 -- -- 61
2018-09-10 16:00:00 22.9 8 Noroeste 18 Oeste 0 -- -- 67
2018-09-10 15:00:00 22.2 4 Noroeste 10 Noroeste 0 -- -- 56
2018-09-10 14:00:00 21.5 2 Sudeste 8 Este 0 -- -- 63
2018-09-10 13:00:00 20.5 3 Este 6 Nordeste 0 -- -- 69
2018-09-10 12:00:00 18 2 Norte 7 Este 0 -- -- 69
2018-09-10 11:00:00 16.8 2 Este 7 Sudoeste 0 -- -- 82
2018-09-10 10:00:00 15.5 2 Sur 5 Sur 0 -- -- 82
2018-09-10 09:00:00 14 0 Calma 8 Sudoeste 0 -- -- 92
2018-09-10 08:00:00 13.2 4 Sur 12 Sudoeste 0 -- -- 92
2018-09-10 07:00:00 14.7 12 Sur 20 Sur 0 -- -- 78
2018-09-10 06:00:00 13.7 12 Sudeste 19 Sudeste 0 -- -- 91
2018-09-10 05:00:00 12.9 5 Sudeste 12 Sudeste 0 -- -- 100
2018-09-10 04:00:00 13.3 3 Este 11 Este 0 -- -- 100
2018-09-10 03:00:00 13.6 2 Este 8 Nordeste 0 -- -- 99
2018-09-10 02:00:00 13.9 2 Sudeste 10 Sudeste 0 -- -- 99
2018-09-10 01:00:00 14.2 2 Este 8 Nordeste 0 -- -- 98
2018-09-10 00:00:00 14.3 2 Este 9 Este 0 -- -- 98
2018-09-09 23:00:00 14.6 2 Nordeste 10 Nordeste 0 -- -- 95
2018-09-09 22:00:00 15.4 4 Nordeste 12 Nordeste 0 -- -- 93
2018-09-09 21:00:00 16.3 5 Norte 14 Norte 0 -- -- 91
2018-09-09 20:00:00 17.3 2 Nordeste 11 Nordeste 0 -- -- 83
2018-09-09 19:00:00 19 2 Nordeste 17 Noroeste 0 -- -- 77
2018-09-09 18:00:00 20.7 6 Noroeste 16 Noroeste 0 -- -- 69
2018-09-09 17:00:00 20.6 6 Noroeste 17 Noroeste 0 -- -- 62
2018-09-09 16:00:00 19.6 7 Noroeste 13 Noroeste 0 -- -- 69
2018-09-09 15:00:00 19.8 8 Oeste 21 Sudoeste 0 -- -- 69
2018-09-09 14:00:00 18.3 4 Norte 10 Norte 0 -- -- 70
2018-09-09 13:00:00 18.5 3 Norte 7 Norte 0 -- -- 73
2018-09-09 12:00:00 17.4 2 Este 10 Nordeste 0 -- -- 80
2018-09-09 11:00:00 15.9 5 Norte 9 Nordeste 0 -- -- 74
2018-09-09 10:00:00 14.9 4 Norte 6 Nordeste 0 -- -- 74
2018-09-09 09:00:00 13.4 3 Norte 5 Norte 0 -- -- 80
2018-09-09 08:00:00 12.5 0 Calma 8 Noroeste 0 -- -- 84
2018-09-09 07:00:00 13.5 5 Oeste 12 Oeste 0 -- -- 78
2018-09-09 06:00:00 12.3 8 Oeste 10 Oeste 0 -- -- 88
2018-09-09 05:00:00 12.5 9 Sudoeste 15 Sudoeste 0 -- -- 89
2018-09-09 04:00:00 13.5 10 Sur 14 Sudeste 0 -- -- 77
2018-09-09 03:00:00 12.3 4 Sudeste 22 Sur 0 -- -- 93
2018-09-09 02:00:00 13.2 11 Sudeste 33 Sudeste 0.8 -- -- 84
2018-09-09 01:00:00 13.4 12 Sudeste 26 Sudoeste 0 -- -- 86
2018-09-09 00:00:00 14.3 17 Sudoeste 32 Sudoeste 0 -- -- 85
2018-09-08 23:00:00 14.9 12 Sudoeste 18 Sudoeste 0 -- -- 89
2018-09-08 22:00:00 15.6 11 Noroeste 18 Noroeste 0 -- -- 86
2018-09-08 21:00:00 16.4 6 Noroeste 14 Noroeste 0 -- -- 71
2018-09-08 20:00:00 16 2 Nordeste 12 Sudeste 0 -- -- 77
2018-09-08 19:00:00 16.6 3 Sudoeste 9 Sudeste 0.6 -- -- 75
2018-09-08 18:00:00 18.5 3 Sudeste 9 Sudeste 0.4 -- -- 72
2018-09-08 17:00:00 20.6 6 Sudoeste 21 Noroeste 0 -- -- 56
2018-09-08 16:00:00 22.7 7 Noroeste 15 Oeste 0 -- -- 51
2018-09-08 15:00:00 21.8 7 Oeste 18 Oeste 0 -- -- 53
2018-09-08 14:00:00 21.2 8 Oeste 18 Oeste 0 -- -- 56
2018-09-08 13:00:00 20.1 9 Oeste 15 Oeste 0 -- -- 61
2018-09-08 12:00:00 19.6 3 Sudeste 13 Este 0 -- -- 69
2018-09-08 11:00:00 17.9 7 Sudeste 17 Sur 0 -- -- 71
2018-09-08 10:00:00 16.6 7 Sudeste 23 Sudeste 0 -- -- 73
2018-09-08 09:00:00 15.4 11 Sudeste 26 Sudeste 0 -- -- 69
2018-09-08 08:00:00 14.4 9 Sudeste 31 Sur 0 -- -- 71
2018-09-08 07:00:00 14.6 14 Sudeste 28 Sudeste 0 -- -- 71
2018-09-08 06:00:00 14.4 15 Sudeste 31 Sur 0 -- -- 73
2018-09-08 05:00:00 14.4 15 Sudeste 30 Sur 0 -- -- 74
2018-09-08 04:00:00 14.3 15 Sudeste 31 Sudeste 0 -- -- 77
2018-09-08 03:00:00 14.2 12 Sudeste 26 Sudeste 0 -- -- 84
2018-09-08 02:00:00 13.4 5 Sudeste 14 Sudeste 0 -- -- 97
2018-09-08 01:00:00 12.8 2 Sudeste 8 Este 0 -- -- 97
2018-09-08 00:00:00 13.1 0 Calma 5 Este 0 -- -- 95
2018-09-07 23:00:00 13.5 0 Calma 6 Nordeste 0 -- -- 95
2018-09-07 22:00:00 14 2 Nordeste 10 Nordeste 0 -- -- 93
2018-09-07 21:00:00 14.9 5 Nordeste 12 Norte 0 -- -- 91
2018-09-07 20:00:00 16.6 5 Nordeste 13 Norte 0 -- -- 84
2018-09-07 19:00:00 18.9 5 Nordeste 21 Nordeste 0 -- -- 75
2018-09-07 18:00:00 20 8 Nordeste 18 Norte 0 -- -- 73
2018-09-07 17:00:00 19.9 4 Nordeste 11 Norte 0 -- -- 64
2018-09-07 16:00:00 19.8 3 Nordeste 8 Este 0 -- -- 57
2018-09-07 15:00:00 19.5 3 Este 12 Nordeste 0 -- -- 65
2018-09-07 14:00:00 18.8 3 Este 10 Este 0 -- -- 72
2018-09-07 13:00:00 17.5 2 Este 10 Nordeste 0 -- -- 80
2018-09-07 12:00:00 15.1 2 Este 10 Este 0 -- -- 92
2018-09-07 11:00:00 12.8 3 Este 10 Este 0 -- -- 100
2018-09-07 10:00:00 11.5 3 Este 10 Este 0 -- -- 100
2018-09-07 09:00:00 10.4 3 Este 13 Este 0 -- -- 100
2018-09-07 08:00:00 10.1 3 Este 14 Este 0 -- -- 100
2018-09-07 07:00:00 10.3 3 Este 15 Este 0 -- -- 100
2018-09-07 06:00:00 10.5 3 Este 15 Este 0 -- -- 100
2018-09-07 05:00:00 10.6 2 Nordeste 12 Nordeste 0 -- -- 100
2018-09-07 04:00:00 10.8 3 Este 13 Norte 0 -- -- 100
2018-09-07 03:00:00 10.9 3 Este 14 Nordeste 0 -- -- 100
2018-09-07 02:00:00 11 3 Nordeste 11 Nordeste 0 -- -- 100
2018-09-07 01:00:00 11 4 Nordeste 17 Nordeste 0 -- -- 100
2018-09-07 00:00:00 11.1 4 Nordeste 18 Nordeste 0 -- -- 100
2018-09-06 23:00:00 11.3 6 Nordeste 25 Sudeste 0 -- -- 99
2018-09-06 22:00:00 11.5 6 Nordeste 24 Nordeste 0 -- -- 98
2018-09-06 21:00:00 11.9 7 Nordeste 27 Nordeste 0 -- -- 97
2018-09-06 20:00:00 13 7 Nordeste 28 Nordeste 0 -- -- 93
2018-09-06 19:00:00 14.3 7 Nordeste 22 Nordeste 0 -- -- 89
2018-09-06 18:00:00 15.3 6 Nordeste 23 Norte 0 -- -- 84
2018-09-06 17:00:00 15.9 8 Nordeste 27 Nordeste 0 -- -- 80
2018-09-06 16:00:00 16.2 6 Nordeste 27 Nordeste 0 -- -- 80
2018-09-06 15:00:00 15.5 8 Nordeste 25 Nordeste 0 -- -- 85
2018-09-06 14:00:00 15.6 8 Nordeste 27 Nordeste 0 -- -- 86
2018-09-06 13:00:00 15.2 6 Nordeste 20 Nordeste 0 -- -- 87
2018-09-06 12:00:00 15 5 Nordeste 23 Nordeste 0 -- -- 88
2018-09-06 11:00:00 13.9 4 Nordeste 18 Nordeste 0 -- -- 100
2018-09-06 10:00:00 11.4 5 Nordeste 18 Nordeste 0 -- -- 100
2018-09-06 09:00:00 11.2 4 Nordeste 19 Norte 0 -- -- 100
2018-09-06 08:00:00 10.8 5 Nordeste 19 Nordeste 0 -- -- 100
2018-09-06 07:00:00 11 5 Nordeste 15 Nordeste 0 -- -- 100
2018-09-06 06:00:00 10.9 4 Nordeste 14 Nordeste 0 -- -- 100
2018-09-06 05:00:00 10.7 4 Nordeste 17 Nordeste 0 -- -- 100
2018-09-06 04:00:00 10.8 4 Nordeste 22 Nordeste 0 -- -- 100
2018-09-06 03:00:00 11.1 5 Nordeste 24 Nordeste 0 -- -- 100
2018-09-06 02:00:00 11.5 4 Nordeste 24 Norte 0 -- -- 100
2018-09-06 01:00:00 11.7 5 Nordeste 22 Este 0 -- -- 100
2018-09-06 00:00:00 11.7 5 Nordeste 14 Sudeste 0 -- -- 100
2018-09-05 23:00:00 11.8 5 Nordeste 16 Nordeste 0 -- -- 100
2018-09-05 22:00:00 11.9 7 Nordeste 18 Nordeste 0 -- -- 99
2018-09-05 21:00:00 12.5 5 Nordeste 15 Nordeste 0 -- -- 98
2018-09-05 20:00:00 13.3 6 Nordeste 21 Nordeste 0 -- -- 96
2018-09-05 19:00:00 14 5 Nordeste 20 Norte 0 -- -- 95
2018-09-05 18:00:00 14.6 5 Nordeste 14 Nordeste 0 -- -- 89
2018-09-05 17:00:00 16 5 Nordeste 19 Nordeste 0 -- -- 87
2018-09-05 16:00:00 16.2 4 Nordeste 15 Norte 0 -- -- 87
2018-09-05 15:00:00 15.3 4 Norte 12 Norte 0 -- -- 84
2018-09-05 14:00:00 14.5 5 Norte 14 Nordeste 0 -- -- 90
2018-09-05 13:00:00 13.8 4 Noroeste 10 Oeste 0 -- -- 94
2018-09-05 12:00:00 13.8 4 Oeste 14 Sudoeste 0 -- -- 94
2018-09-05 11:00:00 12.7 7 Oeste 14 Oeste 0 -- -- 98
2018-09-05 10:00:00 11.6 3 Norte 11 Nordeste 0 -- -- 98
2018-09-05 09:00:00 11 4 Nordeste 28 Este 0 -- -- 100
2018-09-05 08:00:00 11.5 4 Nordeste 22 Nordeste 0 -- -- 100
2018-09-05 07:00:00 11.8 4 Este 14 Este 0 -- -- 100
2018-09-05 06:00:00 11.8 3 Nordeste 26 Sudeste 0 -- -- 100
2018-09-05 05:00:00 11.9 5 Nordeste 22 Sur 0 -- -- 100
2018-09-05 04:00:00 12.3 3 Nordeste 23 Norte 0 -- -- 100
2018-09-05 03:00:00 12.3 9 Norte 22 Noroeste 5.2 -- -- 99
2018-09-05 02:00:00 13 4 Nordeste 18 Nordeste 3.6 -- -- 97
2018-09-05 01:00:00 13.1 4 Nordeste 20 Nordeste 0 -- -- 96
2018-09-05 00:00:00 13.2 7 Nordeste 24 Nordeste 0 -- -- 95
2018-09-04 23:00:00 13.5 6 Nordeste 21 Este 0 -- -- 92
2018-09-04 22:00:00 14.2 6 Nordeste 22 Nordeste 0 -- -- 88
2018-09-04 21:00:00 14.7 5 Nordeste 23 Norte 0 -- -- 84
2018-09-04 20:00:00 16.2 6 Nordeste 23 Nordeste 0 -- -- 78
2018-09-04 19:00:00 17.9 7 Nordeste 19 Nordeste 0 -- -- 70
2018-09-04 18:00:00 18.6 5 Nordeste 18 Nordeste 0 -- -- 66
2018-09-04 17:00:00 19.5 5 Nordeste 17 Norte 0 -- -- 66
2018-09-04 16:00:00 19.3 5 Nordeste 13 Este 0 -- -- 68
2018-09-04 15:00:00 18.5 4 Nordeste 11 Nordeste 0 -- -- 73
2018-09-04 14:00:00 17.4 3 Este 11 Nordeste 0 -- -- 77
2018-09-04 13:00:00 15.6 0 Calma 10 Este 0 -- -- 87
2018-09-04 12:00:00 14.6 3 Nordeste 15 Este 0 -- -- 95
2018-09-04 11:00:00 13.3 3 Nordeste 19 Este 0 -- -- 100
2018-09-04 10:00:00 11.4 3 Nordeste 13 Este 0 -- -- 100
2018-09-04 09:00:00 10.8 2 Nordeste 13 Nordeste 0.2 -- -- 100
2018-09-04 08:00:00 10.9 4 Nordeste 15 Este 0.2 -- -- 100
2018-09-04 07:00:00 11.4 4 Este 14 Sudeste 0.6 -- -- 100
2018-09-04 06:00:00 11.3 4 Nordeste 16 Este 0.2 -- -- 100
2018-09-04 05:00:00 11.3 3 Nordeste 10 Nordeste 0 -- -- 100
2018-09-04 04:00:00 11.7 3 Este 18 Este 0 -- -- 100
2018-09-04 03:00:00 11.9 3 Nordeste 16 Norte 0 -- -- 100
2018-09-04 02:00:00 12.2 4 Nordeste 19 Este 0 -- -- 100
2018-09-04 01:00:00 13 5 Nordeste 21 Nordeste 0 -- -- 99
2018-09-04 00:00:00 13.7 4 Nordeste 23 Nordeste 2.6 -- -- 99
2018-09-03 23:00:00 14.3 5 Nordeste 28 Este 0 -- -- 95
2018-09-03 22:00:00 14.8 5 Nordeste 21 Nordeste 0 -- -- 93
2018-09-03 21:00:00 15.6 5 Nordeste 21 Sudeste 0 -- -- 90
2018-09-03 20:00:00 16.8 5 Nordeste 15 Norte 0 -- -- 87
2018-09-03 19:00:00 17.5 3 Nordeste 14 Nordeste 0 -- -- 81
2018-09-03 18:00:00 17.7 4 Nordeste 14 Nordeste 0 -- -- 79
2018-09-03 17:00:00 18.9 4 Nordeste 15 Este 0 -- -- 77
2018-09-03 16:00:00 17.9 5 Nordeste 18 Este 0 -- -- 78
2018-09-03 15:00:00 18.9 3 Nordeste 17 Este 0 -- -- 75
2018-09-03 14:00:00 17 3 Nordeste 17 Nordeste 0 -- -- 88
2018-09-03 13:00:00 16.9 3 Nordeste 18 Este 0 -- -- 83
2018-09-03 12:00:00 16.9 3 Este 15 Sudeste 0 -- -- 79
2018-09-03 11:00:00 14.4 4 Este 15 Este 0 -- -- 92
2018-09-03 10:00:00 15.1 5 Sudeste 12 Sudeste 0 -- -- 86
2018-09-03 09:00:00 16.4 4 Oeste 17 Este 0 -- -- 74
2018-09-03 08:00:00 15.2 3 Sudeste 10 Este 0 -- -- 87
2018-09-03 07:00:00 15.8 2 Este 12 Este 0 -- -- 83
2018-09-03 06:00:00 16.2 2 Nordeste 15 Este 0 -- -- 72
2018-09-03 05:00:00 16.9 3 Este 16 Este 0 -- -- 79
2018-09-03 04:00:00 17.6 4 Nordeste 14 Nordeste 0 -- -- 73
2018-09-03 03:00:00 18.5 3 Nordeste 17 Este 0 -- -- 68
2018-09-03 02:00:00 18.6 3 Nordeste 20 Este 0 -- -- 70
2018-09-03 01:00:00 19 4 Nordeste 18 Este 0 -- -- 63
2018-09-03 00:00:00 19 2 Nordeste 9 Este 0 -- -- 62
2018-09-02 23:00:00 19.5 2 Nordeste 11 Sudeste 0 -- -- 60
2018-09-02 22:00:00 19 2 Nordeste 9 Nordeste 0 -- -- 66
2018-09-02 21:00:00 19.9 0 Calma 17 Este 0 -- -- 64
2018-09-02 20:00:00 21.3 6 Nordeste 24 Nordeste 0 -- -- 54
2018-09-02 19:00:00 22.6 4 Nordeste 19 Noroeste 0 -- -- 62
2018-09-02 18:00:00 24.3 6 Noroeste 15 Noroeste 0 -- -- 52
2018-09-02 17:00:00 26.4 4 Noroeste 15 Sur 0 -- -- 51
2018-09-02 16:00:00 28.5 2 Sudeste 9 Este 0 -- -- 39
2018-09-02 15:00:00 28.2 3 Este 10 Este 0 -- -- 39
2018-09-02 14:00:00 27.9 3 Este 10 Este 0 -- -- 48
2018-09-02 13:00:00 27 3 Sudeste 21 Sudeste 0 -- -- 54
2018-09-02 12:00:00 25 5 Sudeste 19 Sudeste 0 -- -- 53
2018-09-02 11:00:00 23.2 7 Sudeste 18 Sudeste 0 -- -- 50
2018-09-02 10:00:00 22.1 6 Sudeste 20 Sudeste 0 -- -- 57
2018-09-02 09:00:00 20.9 8 Sudeste 18 Sudeste 0 -- -- 56
2018-09-02 08:00:00 19.9 7 Sudeste 17 Sudeste 0 -- -- 57
2018-09-02 07:00:00 20 6 Sudeste 26 Sudeste 0 -- -- 58
2018-09-02 06:00:00 20.4 11 Sudeste 27 Sudeste 0 -- -- 57
2018-09-02 05:00:00 20.6 14 Sudeste 31 Sudeste 0 -- -- 56
2018-09-02 04:00:00 21 13 Sudeste 27 Sur 0 -- -- 60
2018-09-02 03:00:00 20.7 9 Sudeste 14 Sudeste 0 -- -- 64
2018-09-02 02:00:00 19.3 0 Calma 5 Sudeste 0 -- -- 76
2018-09-02 01:00:00 19 0 Calma 7 Este 0 -- -- 79
2018-09-02 00:00:00 19 3 Este 6 Sudeste 0 -- -- 80
2018-09-01 23:00:00 19.4 0 Calma 6 Noroeste 0 -- -- 78
2018-09-01 22:00:00 20.1 0 Calma 9 Nordeste 0 -- -- 75
2018-09-01 21:00:00 21.4 3 Nordeste 12 Nordeste 0 -- -- 72
2018-09-01 20:00:00 23.5 4 Noroeste 19 Noroeste 0 -- -- 70
2018-09-01 19:00:00 25.5 9 Noroeste 16 Noroeste 0 -- -- 63
2018-09-01 18:00:00 27.7 5 Oeste 16 Noroeste 0 -- -- 45
2018-09-01 17:00:00 26.7 2 Este 8 Este 0 -- -- 44
2018-09-01 16:00:00 25.7 2 Nordeste 10 Este 0 -- -- 49
2018-09-01 15:00:00 25 3 Este 9 Este 0 -- -- 59
2018-09-01 14:00:00 24.3 2 Este 15 Sudeste 0 -- -- 60
2018-09-01 13:00:00 23.4 5 Este 15 Este 0 -- -- 64
2018-09-01 12:00:00 21.8 6 Este 19 Sudeste 0 -- -- 67
2018-09-01 11:00:00 20.5 9 Sudeste 24 Sudeste 0 -- -- 66
2018-09-01 10:00:00 19.2 11 Sudeste 27 Sudeste 0 -- -- 68
2018-09-01 09:00:00 18.1 15 Sudeste 30 Sudeste 0 -- -- 70
2018-09-01 08:00:00 17.5 14 Sudeste 30 Sudeste 0 -- -- 71
2018-09-01 07:00:00 17.5 15 Sudeste 30 Sudeste 0 -- -- 72
2018-09-01 06:00:00 17.3 14 Sudeste 28 Sudeste 0 -- -- 73
2018-09-01 05:00:00 17.3 15 Sudeste 31 Sudeste 0 -- -- 73
2018-09-01 04:00:00 16.7 13 Sudeste 29 Este 0 -- -- 78
2018-09-01 03:00:00 15.6 13 Sudeste 24 Sudeste 0 -- -- 89
2018-09-01 02:00:00 14.7 4 Sudeste 11 Este 0 -- -- 97
2018-09-01 01:00:00 15 2 Este 9 Sudeste 0 -- -- 95
2018-09-01 00:00:00 15.2 2 Este 10 Este 0 -- -- 95
2018-08-31 23:00:00 15.7 0 Calma 9 Nordeste 0 -- -- 93
2018-08-31 22:00:00 16.6 2 Nordeste 11 Este 0 -- -- 89
2018-08-31 21:00:00 17.7 4 Nordeste 13 Nordeste 0 -- -- 86
2018-08-31 20:00:00 19.4 5 Nordeste 21 Nordeste 0 -- -- 81
2018-08-31 19:00:00 21.4 7 Nordeste 19 Norte 0 -- -- 74
2018-08-31 18:00:00 23.6 5 Nordeste 15 Nordeste 0 -- -- 60
2018-08-31 17:00:00 23.7 3 Nordeste 10 Norte 0 -- -- 55
2018-08-31 16:00:00 23.1 3 Nordeste 11 Nordeste 0 -- -- 56
2018-08-31 15:00:00 22.2 3 Nordeste 8 Noroeste 0 -- -- 65
2018-08-31 14:00:00 20.8 3 Este 10 Este 0 -- -- 68
2018-08-31 13:00:00 19.5 4 Nordeste 15 Este 0 -- -- 70
2018-08-31 12:00:00 17.5 5 Nordeste 16 Nordeste 0 -- -- 66
2018-08-31 11:00:00 15.4 5 Nordeste 15 Este 0 -- -- 73
2018-08-31 10:00:00 15 2 Este 13 Este 0 -- -- 77
2018-08-31 09:00:00 13.2 3 Este 20 Este 0 -- -- 81
2018-08-31 08:00:00 11.9 3 Este 12 Nordeste 0 -- -- 85
2018-08-31 07:00:00 11 3 Este 18 Este 0 -- -- 94
2018-08-31 06:00:00 11.7 4 Nordeste 18 Este 0 -- -- 93
2018-08-31 05:00:00 12.3 3 Nordeste 19 Nordeste 0 -- -- 92
2018-08-31 04:00:00 12.3 0 Calma 15 Nordeste 0 -- -- 97
2018-08-31 03:00:00 12.7 3 Este 18 Este 0 -- -- 95
2018-08-31 02:00:00 12.8 4 Este 14 Este 0 -- -- 98
2018-08-31 01:00:00 12.9 4 Este 15 Nordeste 0 -- -- 99
2018-08-31 00:00:00 13.2 3 Nordeste 9 Este 0 -- -- 98
2018-08-30 23:00:00 14 0 Calma 13 Nordeste 0 -- -- 96
2018-08-30 22:00:00 14.9 3 Nordeste 17 Norte 0 -- -- 92
2018-08-30 21:00:00 16 5 Nordeste 14 Norte 0 -- -- 87
2018-08-30 20:00:00 18.5 5 Norte 13 Norte 0 -- -- 76
2018-08-30 19:00:00 20.6 6 Noroeste 14 Norte 0 -- -- 57
2018-08-30 18:00:00 21.1 5 Noroeste 14 Norte 0 -- -- 66
2018-08-30 17:00:00 20.9 5 Norte 13 Norte 0 -- -- 65
2018-08-30 16:00:00 19.9 4 Norte 15 Norte 0 -- -- 73
2018-08-30 15:00:00 18.2 2 Nordeste 10 Nordeste 0 -- -- 85
2018-08-30 14:00:00 16.1 5 Norte 10 Este 0 -- -- 90
2018-08-30 13:00:00 14 3 Este 9 Sudeste 0 -- -- 98
2018-08-30 12:00:00 13.2 0 Calma 6 Este 0 -- -- 100
2018-08-30 11:00:00 13.4 0 Calma 16 Sudeste 0 -- -- 100
2018-08-30 10:00:00 11.6 5 Sudeste 13 Este 0 -- -- 100
2018-08-30 09:00:00 10.8 4 Este 12 Sudeste 0 -- -- 100
2018-08-30 08:00:00 10.6 5 Sudeste 17 Sudeste 0 -- -- 100
2018-08-30 07:00:00 10.7 6 Sudeste 14 Sudeste 0 -- -- 100
2018-08-30 06:00:00 10.8 0 Calma 7 Nordeste 0 -- -- 100
2018-08-30 05:00:00 11 2 Nordeste 14 Norte 0 -- -- 100
2018-08-30 04:00:00 11.1 3 Nordeste 14 Norte 0 -- -- 100
2018-08-30 03:00:00 11.4 3 Nordeste 15 Nordeste 0 -- -- 100
2018-08-30 02:00:00 11.6 3 Nordeste 13 Nordeste 0 -- -- 100
2018-08-30 01:00:00 12 3 Nordeste 12 Nordeste 0 -- -- 100
2018-08-30 00:00:00 12.2 4 Nordeste 14 Nordeste 0 -- -- 100
2018-08-29 23:00:00 12.5 4 Nordeste 13 Norte 0 -- -- 99
2018-08-29 22:00:00 13.1 4 Nordeste 13 Nordeste 0 -- -- 98
2018-08-29 21:00:00 13.6 6 Norte 14 Norte 0 -- -- 94
2018-08-29 20:00:00 16.1 6 Noroeste 18 Oeste 0 -- -- 85
2018-08-29 19:00:00 18.7 8 Noroeste 16 Oeste 0 -- -- 71
2018-08-29 18:00:00 18.8 0 Calma 6 Este 0 -- -- 78
2018-08-29 17:00:00 18.6 3 Este 9 Este 0 -- -- 79
2018-08-29 16:00:00 17.6 2 Este 13 Norte 0 -- -- 79
2018-08-29 15:00:00 16.2 4 Norte 11 Nordeste 0 -- -- 85
2018-08-29 14:00:00 14.6 3 Norte 10 Norte 0 -- -- 99
2018-08-29 13:00:00 13.7 4 Norte 11 Nordeste 0 -- -- 100
2018-08-29 12:00:00 13.1 4 Oeste 9 Nordeste 0 -- -- 100
2018-08-29 11:00:00 12.4 3 Sudoeste 9 Sudoeste 0 -- -- 100
2018-08-29 10:00:00 11.6 5 Oeste 13 Oeste 0 -- -- 100
2018-08-29 09:00:00 11.5 10 Oeste 22 Oeste 0 -- -- 100
2018-08-29 08:00:00 11.7 11 Oeste 19 Noroeste 0 -- -- 100
2018-08-29 07:00:00 11.9 11 Oeste 19 Oeste 0 -- -- 100
2018-08-29 06:00:00 12.2 8 Oeste 18 Oeste 0.2 -- -- 100
2018-08-29 05:00:00 12.5 12 Oeste 23 Oeste 0 -- -- 100
2018-08-29 04:00:00 12.8 14 Oeste 22 Oeste 0.2 -- -- 100
2018-08-29 03:00:00 13.4 8 Oeste 15 Oeste 0.2 -- -- 100
2018-08-29 02:00:00 14.1 6 Oeste 13 Oeste 0 -- -- 100
2018-08-29 01:00:00 14.3 4 Oeste 13 Oeste 0 -- -- 99
2018-08-29 00:00:00 14.4 3 Sudoeste 15 Sudoeste 0 -- -- 98
2018-08-28 23:00:00 14.4 4 Oeste 18 Sudoeste 0 -- -- 96
2018-08-28 22:00:00 14.6 12 Oeste 27 Oeste 0 -- -- 95
2018-08-28 21:00:00 15.3 16 Oeste 33 Oeste 0 -- -- 92
2018-08-28 20:00:00 18.3 14 Oeste 30 Sudoeste 0 -- -- 86
2018-08-28 19:00:00 19.9 6 Oeste 21 Oeste 0.4 -- -- 83
2018-08-28 18:00:00 18.2 10 Oeste 19 Oeste 6 -- -- 83
2018-08-28 17:00:00 22.7 7 Oeste 22 Oeste 0 -- -- 58
2018-08-28 16:00:00 23 7 Oeste 21 Oeste 0 -- -- 56
2018-08-28 15:00:00 22.5 7 Sudoeste 20 Sudoeste 0 -- -- 54
2018-08-28 14:00:00 21.7 6 Oeste 22 Oeste 0 -- -- 56
2018-08-28 13:00:00 20.5 8 Sudoeste 22 Oeste 0 -- -- 59
2018-08-28 12:00:00 20.5 4 Sudoeste 16 Sudeste 0 -- -- 50
2018-08-28 11:00:00 18 4 Este 15 Sudeste 0 -- -- 72
2018-08-28 10:00:00 16.2 3 Sudeste 13 Oeste 0 -- -- 73
2018-08-28 09:00:00 15.7 5 Sudoeste 18 Sudoeste 0 -- -- 69
2018-08-28 08:00:00 14.6 4 Sur 22 Oeste 0.2 -- -- 76
2018-08-28 07:00:00 15.4 11 Oeste 30 Noroeste 0.2 -- -- 74
2018-08-28 06:00:00 15.2 3 Sur 41 Noroeste 0.4 -- -- 84
2018-08-28 05:00:00 17.2 15 Oeste 32 Oeste 0 -- -- 65
2018-08-28 04:00:00 17.4 12 Oeste 27 Sudoeste 0.2 -- -- 67
2018-08-28 03:00:00 18.3 8 Sur 32 Sur 0.6 -- -- 70
2018-08-28 02:00:00 22.4 14 Sudoeste 33 Sudoeste 0 -- -- 46
2018-08-28 01:00:00 23.5 15 Sur 32 Sudoeste 0 -- -- 39
2018-08-28 00:00:00 21.6 10 Sur 17 Sur 0 -- -- 54
2018-08-27 23:00:00 21.8 9 Sur 15 Sudeste 0 -- -- 56
2018-08-27 22:00:00 20.7 3 Sudeste 9 Sudeste 0 -- -- 80
2018-08-27 21:00:00 20.8 2 Nordeste 8 Nordeste 0 -- -- 81
2018-08-27 20:00:00 22.3 0 Calma 11 Noroeste 0 -- -- 73
2018-08-27 19:00:00 24.3 6 Oeste 16 Oeste 0 -- -- 68
2018-08-27 18:00:00 25.1 8 Oeste 14 Sudoeste 0 -- -- 60
2018-08-27 17:00:00 26.3 4 Oeste 17 Oeste 0 -- -- 59
2018-08-27 16:00:00 25.6 4 Norte 11 Nordeste 0 -- -- 56
2018-08-27 15:00:00 24.8 4 Nordeste 10 Norte 0 -- -- 59
2018-08-27 14:00:00 23.7 3 Este 10 Este 0 -- -- 65
2018-08-27 13:00:00 22.8 2 Nordeste 10 Este 0 -- -- 66
2018-08-27 12:00:00 21.1 4 Nordeste 14 Este 0 -- -- 69
2018-08-27 11:00:00 19.3 5 Este 21 Sudeste 0 -- -- 73
2018-08-27 10:00:00 17.9 5 Este 15 Este 0 -- -- 76
2018-08-27 09:00:00 16.3 2 Este 14 Sudeste 0 -- -- 84
2018-08-27 08:00:00 14.4 0 Calma 8 Norte 0 -- -- 91
2018-08-27 07:00:00 14.5 0 Calma 7 Sudeste 0 -- -- 90
2018-08-27 06:00:00 14.6 0 Calma 8 Nordeste 0 -- -- 89
2018-08-27 05:00:00 14.8 2 Este 9 Este 0 -- -- 89
2018-08-27 04:00:00 14.4 2 Este 6 Este 0 -- -- 87
2018-08-27 03:00:00 14.7 2 Sudeste 5 Sudeste 0 -- -- 87
2018-08-27 02:00:00 14.9 0 Calma 5 Este 0 -- -- 86
2018-08-27 01:00:00 15.6 0 Calma 5 Norte 0 -- -- 83
2018-08-27 00:00:00 15.9 0 Calma 10 Norte 0 -- -- 81
2018-08-26 23:00:00 16.6 4 Nordeste 10 Noroeste 0 -- -- 81
2018-08-26 22:00:00 17.4 6 Noroeste 15 Noroeste 0 -- -- 74
2018-08-26 21:00:00 18.7 9 Noroeste 18 Noroeste 0 -- -- 74
2018-08-26 20:00:00 20.9 8 Oeste 16 Oeste 0 -- -- 61
2018-08-26 19:00:00 22.8 8 Noroeste 17 Oeste 0 -- -- 55
2018-08-26 18:00:00 23.1 8 Noroeste 19 Oeste 0 -- -- 54
2018-08-26 17:00:00 22.6 9 Oeste 18 Oeste 0 -- -- 53
2018-08-26 16:00:00 22 8 Oeste 18 Oeste 0 -- -- 54
2018-08-26 15:00:00 20.7 10 Oeste 17 Oeste 0 -- -- 61
2018-08-26 14:00:00 19.8 7 Oeste 14 Sudoeste 0 -- -- 69
2018-08-26 13:00:00 19.2 2 Norte 8 Norte 0 -- -- 74
2018-08-26 12:00:00 17.8 2 Oeste 6 Sudoeste 0 -- -- 77
2018-08-26 11:00:00 16 3 Noroeste 6 Sudoeste 0 -- -- 78
2018-08-26 10:00:00 15 0 Calma 4 Este 0 -- -- 87
2018-08-26 09:00:00 13.8 0 Calma 5 Oeste 0 -- -- 83
2018-08-26 08:00:00 12.3 3 Sudeste 8 Sur 0 -- -- 86
2018-08-26 07:00:00 12 5 Sur 8 Sudeste 0 -- -- 89
2018-08-26 06:00:00 11.4 3 Sudeste 9 Este 0 -- -- 93
2018-08-26 05:00:00 10.4 0 Calma 9 Este 0 -- -- 97
2018-08-26 04:00:00 10.1 4 Este 11 Sudeste 0 -- -- 99
2018-08-26 03:00:00 9.9 3 Este 13 Nordeste 0 -- -- 98
2018-08-26 02:00:00 10.2 3 Este 10 Este 0 -- -- 96
2018-08-26 01:00:00 10.7 2 Este 9 Este 0 -- -- 95
2018-08-26 00:00:00 10.9 3 Nordeste 10 Nordeste 0 -- -- 93
2018-08-25 23:00:00 11.5 0 Calma 8 Nordeste 0 -- -- 91
2018-08-25 22:00:00 11.7 5 Nordeste 14 Norte 0 -- -- 89
2018-08-25 21:00:00 13.2 8 Norte 14 Norte 0 -- -- 83
2018-08-25 20:00:00 15 6 Norte 14 Norte 0 -- -- 76
2018-08-25 19:00:00 17.4 6 Noroeste 17 Noroeste 0 -- -- 67
2018-08-25 18:00:00 17.8 6 Norte 15 Noroeste 0 -- -- 61
2018-08-25 17:00:00 17.9 7 Norte 15 Nordeste 0 -- -- 63
2018-08-25 16:00:00 17.4 6 Norte 16 Nordeste 0 -- -- 59
2018-08-25 15:00:00 17 6 Nordeste 20 Norte 0 -- -- 64
2018-08-25 14:00:00 16.2 6 Nordeste 18 Norte 0 -- -- 73
2018-08-25 13:00:00 15 5 Norte 15 Nordeste 0 -- -- 80
2018-08-25 12:00:00 11.9 3 Nordeste 12 Este 0 -- -- 100
2018-08-25 11:00:00 10.1 2 Nordeste 13 Nordeste 0 -- -- 100
2018-08-25 10:00:00 9.4 3 Nordeste 14 Este 0 -- -- 100
2018-08-25 09:00:00 9.1 3 Nordeste 13 Este 0 -- -- 100
2018-08-25 08:00:00 9.2 3 Nordeste 14 Nordeste 0 -- -- 100
2018-08-25 07:00:00 9.3 4 Nordeste 15 Sudeste 0 -- -- 100
2018-08-25 06:00:00 9.3 3 Nordeste 19 Este 0 -- -- 100
2018-08-25 05:00:00 9.7 5 Este 20 Nordeste 0 -- -- 100
2018-08-25 04:00:00 10.1 4 Nordeste 14 Este 0 -- -- 100
2018-08-25 03:00:00 10.4 4 Nordeste 15 Nordeste 0 -- -- 100
2018-08-25 02:00:00 10.4 4 Nordeste 16 Este 0 -- -- 100
2018-08-25 01:00:00 10.7 3 Nordeste 14 Este 0 -- -- 99
2018-08-25 00:00:00 11.7 5 Nordeste 17 Este 0 -- -- 99
2018-08-24 23:00:00 11.9 4 Nordeste 19 Nordeste 0 -- -- 99
2018-08-24 22:00:00 12 7 Nordeste 14 Norte 0 -- -- 98
2018-08-24 21:00:00 13.8 6 Norte 10 Norte 0 -- -- 93
2018-08-24 20:00:00 15.9 5 Noroeste 13 Noroeste 0 -- -- 85
2018-08-24 19:00:00 17.7 5 Noroeste 17 Noroeste 0 -- -- 80
2018-08-24 18:00:00 18.6 7 Noroeste 18 Noroeste 0 -- -- 77
2018-08-24 17:00:00 19.5 7 Noroeste 18 Norte 0 -- -- 74
2018-08-24 16:00:00 20.2 4 Norte 15 Norte 0 -- -- 75
2018-08-24 15:00:00 20.1 5 Norte 15 Norte 0 -- -- 73
2018-08-24 14:00:00 18.9 4 Nordeste 15 Nordeste 0 -- -- 72
2018-08-24 13:00:00 17.8 4 Norte 11 Nordeste 0 -- -- 77
2018-08-24 12:00:00 16.1 4 Nordeste 15 Este 0 -- -- 89
2018-08-24 11:00:00 14.6 2 Nordeste 14 Sudeste 0 -- -- 100
2018-08-24 10:00:00 12.8 4 Nordeste 17 Nordeste 0 -- -- 100
2018-08-24 09:00:00 12.4 4 Nordeste 17 Este 0 -- -- 100
2018-08-24 08:00:00 12.2 4 Nordeste 15 Este 0 -- -- 100
2018-08-24 07:00:00 12.5 3 Nordeste 10 Este 0 -- -- 100
2018-08-24 06:00:00 12.7 0 Calma 10 Este 0 -- -- 100
2018-08-24 05:00:00 13.1 0 Calma 11 Este 0 -- -- 99
2018-08-24 04:00:00 13.4 3 Este 11 Norte 0 -- -- 99
2018-08-24 03:00:00 13.5 2 Nordeste 8 Este 0 -- -- 98
2018-08-24 02:00:00 14 0 Calma 10 Sudeste 0 -- -- 98
2018-08-24 01:00:00 14.3 3 Este 8 Este 0 -- -- 96
2018-08-24 00:00:00 15 0 Calma 7 Norte 0 -- -- 89
2018-08-23 23:00:00 16.2 0 Calma 9 Este 0 -- -- 71
2018-08-23 22:00:00 17.1 4 Nordeste 13 Norte 0 -- -- 67
2018-08-23 21:00:00 18.2 3 Nordeste 15 Noroeste 0 -- -- 62
2018-08-23 20:00:00 20 7 Noroeste 19 Noroeste 0 -- -- 76
2018-08-23 19:00:00 22.8 8 Noroeste 15 Oeste 0 -- -- 69
2018-08-23 18:00:00 23.5 6 Norte 18 Norte 0 -- -- 63
2018-08-23 17:00:00 24 6 Norte 15 Norte 0 -- -- 63
2018-08-23 16:00:00 23.7 6 Norte 18 Norte 0 -- -- 59
2018-08-23 15:00:00 22.2 4 Norte 12 Norte 0 -- -- 68
2018-08-23 14:00:00 20.6 4 Nordeste 11 Norte 0 -- -- 77
2018-08-23 13:00:00 19.3 3 Norte 10 Norte 0 -- -- 91
2018-08-23 12:00:00 16.6 2 Este 7 Sudeste 0 -- -- 99
2018-08-23 11:00:00 15.2 3 Este 11 Sudeste 0 -- -- 100
2018-08-23 10:00:00 14.8 2 Este 10 Nordeste 0 -- -- 100
2018-08-23 09:00:00 15 2 Nordeste 9 Este 0 -- -- 100
2018-08-23 08:00:00 15.4 0 Calma 8 Sudeste 0 -- -- 100
2018-08-23 07:00:00 15.6 0 Calma 7 Este 0 -- -- 99
2018-08-23 06:00:00 15.8 3 Sudeste 11 Sudeste 0 -- -- 99
2018-08-23 05:00:00 16 3 Este 11 Este 0 -- -- 99
2018-08-23 04:00:00 16.3 3 Este 13 Sudeste 0 -- -- 99
2018-08-23 03:00:00 16.5 3 Este 10 Sudeste 0 -- -- 98
2018-08-23 02:00:00 16.9 0 Calma 8 Este 0 -- -- 97
2018-08-23 01:00:00 17.4 2 Este 8 Este 0 -- -- 96
2018-08-23 00:00:00 17.8 3 Sudeste 8 Sudeste 0 -- -- 94